Time;durP1;ratioP1;P1;durP2;ratioP2;P2;SDS_P1;SDS_P2;PMS_P1;PMS_P2;Temp;Humidity;BMP_temperature;BMP_pressure;BME280_temperature;BME280_humidity;BME280_pressure;Samples;Min_cycle;Max_cycle;Signal;HPM_P1;HPM_P2
2022/09/03 00:00:14;;;;;;;2.58;0.70;;;;;;;-148.88;47.04;75255.25;5052250;28;20056;-83
2022/09/03 00:02:44;;;;;;;2.38;0.70;;;;;;;-148.88;47.16;75253.22;5053564;28;20029;-82
2022/09/03 00:05:22;;;;;;;2.88;0.77;;;;;;;-148.88;47.26;75269.47;5052377;28;20028;-83
2022/09/03 00:08:02;;;;;;;2.20;0.60;;;;;;;-148.88;47.45;75267.44;5052579;28;20035;-82
2022/09/03 00:10:35;;;;;;;3.97;0.75;;;;;;;-148.88;47.86;75267.44;5053536;28;20108;-83
2022/09/03 00:13:04;;;;;;;2.03;0.98;;;;;;;-148.88;47.65;75265.41;5053625;28;20067;-82
2022/09/03 00:15:32;;;;;;;1.52;0.73;;;;;;;-148.88;47.96;75273.53;5055050;28;20597;-82
2022/09/03 00:18:00;;;;;;;1.95;0.65;;;;;;;-148.88;47.94;75281.66;5057317;28;20020;-82
2022/09/03 00:20:41;;;;;;;2.22;1.00;;;;;;;-148.88;48.47;75295.84;5056846;28;20024;-82
2022/09/03 00:23:13;;;;;;;1.75;0.80;;;;;;;-148.88;48.90;75293.81;5056411;28;20079;-82
2022/09/03 00:25:43;;;;;;;1.77;0.80;;;;;;;-148.88;48.96;75291.78;5055657;28;20421;-83
2022/09/03 00:28:18;;;;;;;2.42;0.80;;;;;;;-148.88;49.01;75297.88;5055450;28;20025;-82
2022/09/03 00:30:52;;;;;;;3.60;0.93;;;;;;;-148.88;49.24;75310.06;5056196;28;20119;-83
2022/09/03 00:33:22;;;;;;;1.52;0.85;;;;;;;-148.88;49.16;75301.94;5057321;28;20078;-82
2022/09/03 00:35:54;;;;;;;2.60;0.70;;;;;;;-148.88;49.67;75322.25;5057298;28;20024;-82
2022/09/03 00:38:21;;;;;;;1.52;0.77;;;;;;;-148.88;49.52;75318.19;5055575;28;20121;-82
2022/09/03 00:40:58;;;;;;;2.33;0.80;;;;;;;-148.88;49.65;75326.31;5055770;28;20017;-83
2022/09/03 00:43:45;;;;;;;4.05;0.88;;;;;;;-148.88;49.74;75326.31;5056715;28;20164;-82
2022/09/03 00:46:25;;;;;;;3.45;0.90;;;;;;;-148.88;50.18;75334.44;5057229;28;20036;-82
2022/09/03 00:49:18;;;;;;;1.85;0.70;;;;;;;-148.88;50.31;75346.63;5056171;28;20021;-83
2022/09/03 00:51:55;;;;;;;3.03;0.90;;;;;;;-148.88;50.76;75346.63;5056880;28;20033;-82
2022/09/03 00:54:33;;;;;;;3.10;0.95;;;;;;;-148.88;50.92;75352.72;5055791;28;20032;-82
2022/09/03 00:57:16;;;;;;;1.70;0.75;;;;;;;-148.88;50.79;75342.56;5055510;28;20025;-82
2022/09/03 00:59:59;;;;;;;5.57;0.82;;;;;;;-148.88;50.77;75350.69;5055389;28;20021;-82
2022/09/03 01:02:40;;;;;;;1.63;0.73;;;;;;;-148.88;50.89;75358.81;5056080;28;20032;-81
2022/09/03 01:05:43;;;;;;;3.08;0.75;;;;;;;-148.88;51.15;75366.94;5056963;28;20028;-82
2022/09/03 01:08:49;;;;;;;3.25;0.63;;;;;;;-148.88;51.19;75356.78;5055698;28;20025;-82
2022/09/03 01:11:50;;;;;;;3.47;1.10;;;;;;;-148.88;51.41;75368.97;5055301;28;20028;-82
2022/09/03 01:14:41;;;;;;;2.65;0.75;;;;;;;-148.88;51.07;75366.94;5055886;28;20420;-82
2022/09/03 01:17:39;;;;;;;1.40;0.70;;;;;;;-148.88;51.23;75368.97;5054215;28;20032;-82
2022/09/03 01:20:19;;;;;;;1.90;0.80;;;;;;;-148.88;51.23;75375.06;5054472;28;20128;-82
2022/09/03 01:23:09;;;;;;;2.15;0.80;;;;;;;-148.88;51.19;75371.00;5056320;28;20505;-82
2022/09/03 01:25:40;;;;;;;3.08;0.80;;;;;;;-148.88;51.63;75379.13;5055282;28;20115;-82
2022/09/03 01:28:19;;;;;;;1.90;0.70;;;;;;;-148.88;51.86;75383.19;5054526;28;20068;-82
2022/09/03 01:30:51;;;;;;;3.65;1.05;;;;;;;-148.88;51.83;75383.19;5055785;28;20028;-82
2022/09/03 01:33:33;;;;;;;2.33;0.80;;;;;;;-148.88;51.84;75391.31;5055150;28;20017;-82
2022/09/03 01:36:11;;;;;;;2.60;0.80;;;;;;;-148.88;51.90;75395.38;5054652;28;20028;-82
2022/09/03 01:38:43;;;;;;;1.88;0.70;;;;;;;-148.88;52.10;75395.38;5055376;28;20479;-82
2022/09/03 01:44:39;;;;;;;2.85;0.80;;;;;;;-148.88;52.16;75395.38;5059888;28;20032;-83
2022/09/03 01:47:16;;;;;;;3.50;0.80;;;;;;;-148.88;52.57;75395.38;5054439;28;20020;-82
2022/09/03 01:49:56;;;;;;;1.88;0.80;;;;;;;-148.88;52.76;75407.56;5054703;28;20021;-82
2022/09/03 01:52:42;;;;;;;2.40;0.70;;;;;;;-148.88;53.48;75431.94;5055387;28;20099;-82
2022/09/03 01:55:27;;;;;;;2.80;1.00;;;;;;;-148.88;53.29;75423.81;5054388;28;20024;-82
2022/09/03 01:57:57;;;;;;;2.08;0.80;;;;;;;-148.88;53.33;75411.63;5055733;28;20079;-81
2022/09/03 02:00:26;;;;;;;2.45;0.88;;;;;;;-148.88;53.47;75425.84;5056013;28;20052;-82
2022/09/03 02:02:52;;;;;;;2.30;0.68;;;;;;;-148.88;53.36;75425.84;5055403;28;20028;-83
2022/09/03 02:05:24;;;;;;;1.35;0.70;;;;;;;-148.88;53.31;75425.84;5055427;28;20029;-82
2022/09/03 02:07:56;;;;;;;2.88;0.85;;;;;;;-148.88;53.47;75431.94;5074868;22;20062;-78
2022/09/03 02:10:30;;;;;;;1.88;0.70;;;;;;;-148.88;53.96;75440.06;5079980;28;20037;-78
2022/09/03 02:13:00;;;;;;;2.67;0.80;;;;;;;-148.88;53.85;75436.00;5080164;28;20093;-78
2022/09/03 02:15:27;;;;;;;2.50;0.90;;;;;;;-148.88;54.32;75444.13;5079682;28;20043;-77
2022/09/03 02:17:55;;;;;;;1.33;0.80;;;;;;;-148.88;54.29;75444.13;5078589;28;20458;-78
2022/09/03 02:20:23;;;;;;;1.58;0.88;;;;;;;-148.88;54.46;75452.25;5079314;28;20437;-77
2022/09/03 02:22:48;;;;;;;2.05;0.77;;;;;;;-148.88;54.81;75454.28;5078624;28;20450;-78
2022/09/03 02:25:15;;;;;;;3.05;1.05;;;;;;;-148.88;55.03;75470.53;5060068;22;20048;-87
2022/09/03 02:27:41;;;;;;;1.52;0.90;;;;;;;-148.88;55.08;75472.56;5034268;28;20484;-86
2022/09/03 02:30:07;;;;;;;1.33;0.77;;;;;;;-148.88;55.36;75480.69;5033039;28;20030;-86
2022/09/03 02:32:33;;;;;;;1.55;0.90;;;;;;;-148.88;55.49;75482.72;5032990;28;20466;-86
2022/09/03 02:34:58;;;;;;;1.42;0.70;;;;;;;-148.88;55.56;75480.69;5033867;28;20475;-87
2022/09/03 02:37:24;;;;;;;2.95;0.80;;;;;;;-148.88;55.79;75496.94;5034124;28;20108;-86
2022/09/03 02:39:50;;;;;;;2.60;0.90;;;;;;;-148.88;56.12;75501.00;5034431;28;20108;-86
2022/09/03 02:42:17;;;;;;;2.13;0.80;;;;;;;-148.88;56.07;75505.06;5034285;28;20025;-88
2022/09/03 02:44:50;;;;;;;3.67;1.02;;;;;;;-148.88;56.47;75505.06;5032848;28;20364;-87
2022/09/03 02:47:18;;;;;;;2.83;0.77;;;;;;;-148.88;56.85;75507.09;5049534;28;20021;-87
2022/09/03 02:49:45;;;;;;;3.17;0.90;;;;;;;-148.88;56.74;75501.00;5032763;28;20459;-87
2022/09/03 02:52:11;;;;;;;2.40;0.82;;;;;;;-148.88;57.05;75511.16;5032931;28;20079;-87
2022/09/03 02:54:40;;;;;;;2.90;1.00;;;;;;;-148.88;56.98;75509.13;5032944;28;20032;-86
2022/09/03 02:57:14;;;;;;;4.20;0.82;;;;;;;-148.88;56.86;75513.19;5033109;28;20074;-87
2022/09/03 02:59:40;;;;;;;3.10;0.85;;;;;;;-148.88;57.48;75517.25;5032403;28;20060;-87
2022/09/03 03:02:06;;;;;;;3.13;0.90;;;;;;;-148.88;57.24;75513.19;5032389;28;20385;-87
2022/09/03 03:04:32;;;;;;;1.45;0.90;;;;;;;-148.88;57.81;75525.38;5032369;28;20047;-87
2022/09/03 03:06:58;;;;;;;3.78;0.90;;;;;;;-148.88;57.92;75529.44;5032478;28;20021;-87
2022/09/03 03:09:23;;;;;;;2.25;0.93;;;;;;;-148.88;58.27;75535.53;5033499;28;20026;-86
2022/09/03 03:11:50;;;;;;;1.83;0.80;;;;;;;-148.88;58.29;75541.63;5032253;28;20021;-86
2022/09/03 03:14:16;;;;;;;1.70;0.90;;;;;;;-148.88;58.42;75539.59;5032288;28;20037;-87
2022/09/03 03:16:41;;;;;;;2.92;0.90;;;;;;;-148.88;58.72;75545.69;5032873;28;20021;-86
2022/09/03 03:19:07;;;;;;;2.17;0.80;;;;;;;-148.88;59.03;75549.75;5032577;28;20033;-87
2022/09/03 03:21:32;;;;;;;1.30;0.90;;;;;;;-148.88;59.13;75545.69;5033531;28;20482;-86
2022/09/03 03:23:57;;;;;;;3.55;0.80;;;;;;;-148.88;59.17;75543.66;5031969;28;20053;-87
2022/09/03 03:26:23;;;;;;;5.47;1.27;;;;;;;-148.88;59.32;75549.75;5032276;28;20029;-87
2022/09/03 03:28:55;;;;;;;1.58;1.00;;;;;;;-148.88;58.80;75541.63;5032164;28;20021;-87
2022/09/03 03:31:21;;;;;;;1.10;0.70;;;;;;;-148.88;59.05;75547.72;5031992;28;20476;-86
2022/09/03 03:33:58;;;;;;;1.27;0.80;;;;;;;-148.88;59.05;75537.56;5032919;28;20128;-87
2022/09/03 03:36:26;;;;;;;1.35;0.80;;;;;;;-148.88;58.85;75549.75;5032483;28;20133;-86
2022/09/03 03:38:56;;;;;;;2.28;1.00;;;;;;;-148.88;58.82;75537.56;5031946;28;20112;-87
2022/09/03 03:41:25;;;;;;;1.60;0.90;;;;;;;-148.88;59.05;75549.75;5032094;28;20045;-87
2022/09/03 03:43:55;;;;;;;2.53;0.80;;;;;;;-148.88;59.25;75549.75;5031778;28;20036;-86
2022/09/03 03:46:22;;;;;;;2.33;1.20;;;;;;;-148.88;59.10;75557.88;5031770;28;20513;-86
2022/09/03 03:48:48;;;;;;;4.95;0.90;;;;;;;-148.88;59.08;75561.94;5033526;28;20053;-87
2022/09/03 03:51:13;;;;;;;1.83;0.98;;;;;;;-148.88;59.25;75561.94;5035847;28;20056;-87
2022/09/03 03:53:38;;;;;;;1.83;0.98;;;;;;;-148.88;59.53;75566.00;5052396;28;20037;-86
2022/09/03 03:56:08;;;;;;;1.10;0.70;;;;;;;-148.88;59.38;75561.94;5037221;28;20025;-87
2022/09/03 03:58:34;;;;;;;2.08;0.90;;;;;;;-148.88;59.70;75561.94;5036065;28;20057;-87
2022/09/03 04:01:04;;;;;;;2.80;0.90;;;;;;;-148.88;60.03;75574.13;5035827;28;20056;-88
2022/09/03 04:03:30;;;;;;;4.43;1.20;;;;;;;-148.88;60.28;75578.19;5052216;28;20108;-87
2022/09/03 04:05:56;;;;;;;3.38;1.00;;;;;;;-148.88;60.18;75574.13;5036706;28;20518;-86
2022/09/03 04:08:22;;;;;;;1.77;0.80;;;;;;;-148.88;60.28;75582.22;5035498;28;20396;-85
2022/09/03 04:10:47;;;;;;;3.75;1.05;;;;;;;-148.88;60.22;75580.22;5035764;28;20052;-85
2022/09/03 04:13:13;;;;;;;3.17;1.00;;;;;;;-148.88;60.45;75588.34;5035689;28;20044;-89
2022/09/03 04:15:38;;;;;;;2.30;1.10;;;;;;;-148.88;61.04;75596.44;5035438;28;20025;-86
2022/09/03 04:18:04;;;;;;;2.75;1.05;;;;;;;-148.88;61.32;75592.38;5036251;28;20395;-86
2022/09/03 04:20:29;;;;;;;2.10;1.13;;;;;;;-148.88;61.29;75596.44;5035659;28;20022;-87
2022/09/03 04:22:59;;;;;;;2.47;0.88;;;;;;;-148.88;61.36;75598.47;5051945;28;20036;-86
2022/09/03 04:25:25;;;;;;;3.67;0.90;;;;;;;-148.88;61.39;75600.50;5034893;28;20105;-85
2022/09/03 04:27:51;;;;;;;3.20;1.00;;;;;;;-148.88;61.39;75600.50;5037866;28;20061;-85
2022/09/03 04:30:16;;;;;;;3.28;1.10;;;;;;;-148.88;61.63;75596.44;5035293;28;20028;-85
2022/09/03 04:32:54;;;;;;;1.80;0.95;;;;;;;-148.88;61.44;75594.44;5035095;28;20029;-86
2022/09/03 04:35:21;;;;;;;1.95;1.10;;;;;;;-148.88;61.70;75602.53;5036189;28;20026;-85
2022/09/03 04:37:47;;;;;;;2.45;1.00;;;;;;;-148.88;61.68;75602.53;5035048;28;20025;-84
2022/09/03 04:40:13;;;;;;;3.25;1.20;;;;;;;-148.88;62.04;75604.56;5035055;28;20063;-86
2022/09/03 04:42:38;;;;;;;3.55;1.20;;;;;;;-148.88;61.89;75606.59;5036658;28;20395;-85
2022/09/03 04:45:04;;;;;;;3.35;0.88;;;;;;;-148.88;62.58;75614.72;5035447;28;20113;-85
2022/09/03 04:47:30;;;;;;;3.60;1.13;;;;;;;-148.88;62.30;75610.66;5052100;28;20029;-85
2022/09/03 04:49:56;;;;;;;3.45;1.10;;;;;;;-148.88;62.75;75618.78;5035442;28;20018;-85
2022/09/03 04:52:21;;;;;;;3.35;1.13;;;;;;;-148.88;62.51;75618.78;5034717;28;20041;-87
2022/09/03 04:54:46;;;;;;;1.83;0.95;;;;;;;-148.88;62.42;75618.78;5036390;28;20099;-87
2022/09/03 04:57:12;;;;;;;2.78;1.17;;;;;;;-148.88;62.45;75604.56;5034777;28;20025;-86
2022/09/03 04:59:37;;;;;;;2.22;1.08;;;;;;;-148.88;62.44;75606.59;5034004;28;20112;-86
2022/09/03 05:02:03;;;;;;;3.13;1.20;;;;;;;-148.88;62.57;75606.59;5033365;28;20018;-85
2022/09/03 05:04:28;;;;;;;2.72;1.10;;;;;;;-148.88;62.21;75602.53;5035465;28;20037;-85
2022/09/03 05:06:53;;;;;;;2.10;0.98;;;;;;;-148.88;62.29;75600.50;5051798;28;20033;-84
2022/09/03 05:09:19;;;;;;;3.45;1.40;;;;;;;-148.88;62.84;75614.72;5035756;28;20024;-84
2022/09/03 05:11:44;;;;;;;3.53;1.17;;;;;;;-148.88;62.57;75606.59;5034487;28;20026;-84
2022/09/03 05:14:11;;;;;;;1.63;1.10;;;;;;;-148.88;62.95;75606.59;5035065;28;20021;-83
2022/09/03 05:16:37;;;;;;;2.60;1.45;;;;;;;-148.88;62.98;75602.53;5034854;28;20479;-83
2022/09/03 05:19:06;;;;;;;2.20;1.13;;;;;;;-148.88;63.15;75598.47;5038675;28;20144;-83
2022/09/03 05:21:34;;;;;;;1.65;1.02;;;;;;;-148.88;62.82;75596.44;5041617;28;20502;-84
2022/09/03 05:24:00;;;;;;;2.72;1.15;;;;;;;-148.88;62.91;75586.31;5042185;28;20029;-85
2022/09/03 05:26:31;;;;;;;5.38;1.15;;;;;;;-148.88;62.67;75582.22;5043599;28;20041;-84
2022/09/03 05:29:06;;;;;;;2.83;1.10;;;;;;;-148.88;62.34;75568.03;5041223;28;20089;-84
2022/09/03 05:31:33;;;;;;;3.80;1.20;;;;;;;-148.88;62.54;75566.00;5034781;28;20021;-83
2022/09/03 05:34:02;;;;;;;3.33;1.10;;;;;;;-148.88;62.30;75557.88;5035242;28;20124;-83
2022/09/03 05:36:29;;;;;;;4.88;1.10;;;;;;;-148.88;62.32;75547.72;5035271;28;20029;-82
2022/09/03 05:38:56;;;;;;;3.10;1.10;;;;;;;-148.88;62.53;75549.75;5035361;28;20025;-84
2022/09/03 05:41:22;;;;;;;2.28;1.20;;;;;;;-148.88;62.17;75541.63;5036030;28;20045;-85
2022/09/03 05:43:53;;;;;;;2.60;1.20;;;;;;;-148.88;62.19;75535.53;5038336;28;20065;-84
2022/09/03 05:46:19;;;;;;;4.38;1.15;;;;;;;-148.88;62.39;75533.50;5038858;28;20464;-85
2022/09/03 05:48:44;;;;;;;2.30;1.00;;;;;;;-148.88;62.02;75525.38;5053869;28;20060;-84
2022/09/03 05:51:15;;;;;;;2.35;1.10;;;;;;;-148.88;61.89;75521.31;5039163;28;20024;-84
2022/09/03 05:53:42;;;;;;;2.47;1.20;;;;;;;-148.88;61.91;75523.34;5038812;28;20035;-84
2022/09/03 05:56:16;;;;;;;2.20;1.20;;;;;;;-148.88;61.98;75515.22;5037478;28;20112;-84
2022/09/03 05:58:44;;;;;;;2.65;1.05;;;;;;;-148.88;61.59;75503.03;5038780;28;20025;-85
2022/09/03 06:01:24;;;;;;;2.20;1.00;;;;;;;-148.88;61.79;75507.09;5037368;28;20018;-84
2022/09/03 06:03:54;;;;;;;3.13;1.40;;;;;;;-148.88;61.62;75494.91;5039393;28;20111;-85
2022/09/03 06:06:24;;;;;;;2.60;1.23;;;;;;;-148.88;61.79;75488.81;5039131;28;20026;-86
2022/09/03 06:08:50;;;;;;;2.70;1.00;;;;;;;-148.88;61.41;75480.69;5035698;28;20017;-83
2022/09/03 06:11:16;;;;;;;3.13;1.15;;;;;;;-148.88;61.21;75474.59;5034472;28;20017;-83
2022/09/03 06:13:41;;;;;;;2.05;1.10;;;;;;;-148.88;61.50;75468.50;5048731;28;20440;-83
2022/09/03 06:16:07;;;;;;;3.15;1.30;;;;;;;-148.88;61.57;75456.31;5035323;28;20033;-84
2022/09/03 06:18:32;;;;;;;1.52;0.98;;;;;;;-148.88;61.27;75450.22;5034902;28;20021;-84
2022/09/03 06:21:00;;;;;;;1.92;1.20;;;;;;;-148.88;61.04;75440.06;5034891;28;20025;-83
2022/09/03 06:23:26;;;;;;;4.65;1.10;;;;;;;-148.88;61.70;75440.06;5036621;28;20025;-84
2022/09/03 06:26:00;;;;;;;4.35;1.20;;;;;;;-148.88;61.60;75440.06;5035056;28;20086;-84
2022/09/03 06:28:26;;;;;;;3.00;1.02;;;;;;;-148.88;61.26;75427.88;5033710;28;20057;-84
2022/09/03 06:30:52;;;;;;;2.38;1.20;;;;;;;-148.88;61.95;75413.66;5051357;28;20021;-84
2022/09/03 06:33:17;;;;;;;1.70;0.90;;;;;;;-148.88;61.87;75411.63;5035843;28;20029;-83
2022/09/03 06:35:43;;;;;;;2.45;1.00;;;;;;;-148.88;61.04;75395.38;5035092;28;20091;-84
2022/09/03 06:38:11;;;;;;;2.65;1.00;;;;;;;-148.88;60.89;75385.22;5051258;28;20032;-84
2022/09/03 06:40:36;;;;;;;1.70;1.10;;;;;;;-148.88;60.41;75379.13;5035634;28;20017;-84
2022/09/03 06:43:02;;;;;;;2.13;1.15;;;;;;;-148.88;60.38;75364.91;5050705;28;20040;-82
2022/09/03 06:45:28;;;;;;;3.00;1.10;;;;;;;-148.88;59.98;75346.63;5035145;28;20401;-83
2022/09/03 06:47:54;;;;;;;2.00;1.05;;;;;;;-148.88;59.65;75348.66;5033478;28;20083;-83
2022/09/03 06:50:19;;;;;;;3.65;1.15;;;;;;;-148.88;60.17;75338.50;5034128;28;20025;-83
2022/09/03 06:52:50;;;;;;;3.10;1.20;;;;;;;-148.88;59.36;75330.38;5034830;28;20079;-84
2022/09/03 06:55:15;;;;;;;3.00;1.00;;;;;;;-148.88;59.10;75314.13;5033327;28;20386;-84
2022/09/03 06:57:40;;;;;;;2.28;1.13;;;;;;;-148.88;58.59;75301.94;5036324;28;20032;-84
2022/09/03 07:00:06;;;;;;;2.75;1.30;;;;;;;-148.88;58.97;75285.69;5037277;28;20040;-83
2022/09/03 07:02:32;;;;;;;4.35;1.25;;;;;;;-148.88;59.14;75271.50;5035391;28;20037;-82
2022/09/03 07:04:57;;;;;;;1.98;1.10;;;;;;;-148.88;58.90;75273.53;5034113;28;20124;-84
2022/09/03 07:07:23;;;;;;;4.13;1.20;;;;;;;-148.88;59.31;75257.28;5034117;28;20026;-82
2022/09/03 07:09:48;;;;;;;2.17;0.90;;;;;;;-148.88;57.16;75245.09;5035017;28;20025;-83
2022/09/03 07:12:15;;;;;;;2.95;1.20;;;;;;;-148.88;56.91;75220.72;5050416;28;20442;-85
2022/09/03 07:14:41;;;;;;;1.80;1.00;;;;;;;-148.88;57.25;75214.63;5033570;28;20025;-85
2022/09/03 07:17:06;;;;;;;2.47;1.13;;;;;;;-148.88;56.31;75208.53;5033217;28;20036;-84
2022/09/03 07:19:31;;;;;;;1.65;0.90;;;;;;;-148.88;56.21;75188.22;5034894;28;20021;-84
2022/09/03 07:21:56;;;;;;;2.60;1.00;;;;;;;-148.88;55.31;75167.91;5033970;28;20047;-84
2022/09/03 07:24:22;;;;;;;2.40;0.98;;;;;;;-148.88;55.18;75159.78;5033202;28;20033;-82
2022/09/03 07:26:48;;;;;;;3.50;1.30;;;;;;;-148.88;55.10;75135.41;5033392;28;20060;-82
2022/09/03 07:29:14;;;;;;;3.78;1.08;;;;;;;-148.88;55.46;75121.19;5033277;28;20025;-83
2022/09/03 07:31:41;;;;;;;2.13;1.23;;;;;;;-148.88;55.05;75111.03;5048767;28;20075;-83
2022/09/03 07:34:09;;;;;;;2.90;1.10;;;;;;;-148.88;53.33;75078.56;5032779;28;20065;-83
2022/09/03 07:36:42;;;;;;;2.40;0.95;;;;;;;-148.88;53.08;75066.38;5032646;28;20045;-83
2022/09/03 07:39:12;;;;;;;2.90;1.00;;;;;;;-148.88;52.98;75046.06;5032289;28;20406;-83
2022/09/03 07:41:42;;;;;;;2.13;1.00;;;;;;;-148.88;52.73;75037.94;5032503;28;20018;-83
2022/09/03 07:44:07;;;;;;;3.42;1.08;;;;;;;-148.88;52.05;75023.72;5032415;28;20025;-83
2022/09/03 07:46:36;;;;;;;2.67;1.00;;;;;;;-148.88;51.79;75005.44;5050131;28;20028;-83
2022/09/03 07:49:03;;;;;;;2.38;1.05;;;;;;;-148.88;52.37;74985.13;5033580;28;20017;-85
2022/09/03 07:51:32;;;;;;;1.88;0.90;;;;;;;-148.88;50.19;74970.91;5032765;28;20421;-84
2022/09/03 07:54:00;;;;;;;2.70;1.00;;;;;;;-148.88;48.52;74958.72;5032319;28;20029;-84
2022/09/03 07:56:29;;;;;;;4.63;0.90;;;;;;;-148.88;47.73;74944.53;5032653;28;20078;-84
2022/09/03 07:58:55;;;;;;;2.33;1.00;;;;;;;-148.88;48.42;74936.41;5052835;28;20045;-85
2022/09/03 08:01:23;;;;;;;3.83;1.10;;;;;;;-148.88;48.77;74928.28;5039657;28;20017;-84
2022/09/03 08:03:50;;;;;;;2.60;1.13;;;;;;;-148.88;47.01;74907.97;5032417;28;20440;-82
2022/09/03 08:06:17;;;;;;;2.40;1.00;;;;;;;-148.88;47.17;74895.78;5031720;28;20057;-83
2022/09/03 08:08:44;;;;;;;2.28;1.00;;;;;;;-148.88;45.93;74885.63;5034018;28;20029;-84
2022/09/03 08:11:13;;;;;;;2.05;1.00;;;;;;;-148.88;46.87;74887.66;5051417;28;20108;-84
2022/09/03 08:13:47;;;;;;;3.30;1.20;;;;;;;-148.88;45.69;74863.28;5035236;28;20044;-83
2022/09/03 08:16:13;;;;;;;;;;;;;;;-148.88;45.61;74857.19;5035296;28;20025;-81
2022/09/03 08:18:39;;;;;;;2.65;0.75;;;;;;;-148.88;45.92;74838.91;5035151;28;20454;-82
2022/09/03 08:21:14;;;;;;;2.78;1.20;;;;;;;-148.88;46.41;74814.53;5035815;28;20052;-83
2022/09/03 08:23:41;;;;;;;2.92;1.20;;;;;;;-148.88;45.31;74802.38;5035689;28;20021;-82
2022/09/03 08:26:07;;;;;;;2.83;1.30;;;;;;;-148.88;44.49;74788.16;5035844;28;20033;-87
2022/09/03 08:28:33;;;;;;;3.47;1.40;;;;;;;-148.88;44.67;74773.94;5032604;28;20044;-84
2022/09/03 08:31:08;;;;;;;2.00;1.10;;;;;;;-148.88;44.57;74773.94;5035090;28;20049;-85
2022/09/03 08:33:37;;;;;;;1.98;0.82;;;;;;;-148.88;45.56;74747.53;5032708;28;20441;-83
2022/09/03 08:36:07;;;;;;;3.70;1.25;;;;;;;-148.88;43.15;74723.16;5033458;28;20025;-86
2022/09/03 08:38:34;;;;;;;2.38;1.20;;;;;;;-148.88;43.14;74725.19;5037140;28;20033;-84
2022/09/03 08:41:09;;;;;;;3.28;1.50;;;;;;;-148.88;42.99;74702.84;5036366;28;20492;-83
2022/09/03 08:43:53;;;;;;;2.38;1.10;;;;;;;-148.88;42.57;74706.91;5035101;28;20071;-83
2022/09/03 08:46:20;;;;;;;;;;;;;;;-148.88;42.68;74700.84;5036463;28;20394;-84
2022/09/03 08:48:47;;;;;;;2.30;1.08;;;;;;;-148.88;42.16;74682.56;5034440;28;20386;-87
2022/09/03 08:51:16;;;;;;;2.35;0.82;;;;;;;-148.88;42.99;74672.41;5035585;28;20017;-87
2022/09/03 08:53:53;;;;;;;3.20;0.95;;;;;;;-148.88;42.06;74652.09;5034484;28;20030;-86
2022/09/03 08:56:30;;;;;;;2.17;1.10;;;;;;;-148.88;42.28;74639.91;5034226;28;20490;-88
2022/09/03 08:58:56;;;;;;;3.28;1.00;;;;;;;-148.88;41.06;74615.53;5034645;28;20029;-88
2022/09/03 09:01:46;;;;;;;2.67;1.25;;;;;;;-148.88;41.09;74617.56;5034513;28;20391;-90
2022/09/03 09:04:40;;;;;;;3.10;1.10;;;;;;;-148.88;40.64;74585.09;5035187;28;20503;-84
2022/09/03 09:07:36;;;;;;;2.63;1.15;;;;;;;-148.88;40.49;74570.88;5034607;28;20021;-84
2022/09/03 09:10:29;;;;;;;2.05;0.85;;;;;;;-148.88;40.18;74534.31;5033052;28;20041;-86
2022/09/03 09:13:08;;;;;;;5.05;1.10;;;;;;;-148.88;39.74;74518.06;5036195;28;20510;-84
2022/09/03 09:15:47;;;;;;;2.08;1.00;;;;;;;-148.88;39.04;74501.81;5036203;28;20037;-83
2022/09/03 09:18:24;;;;;;;2.35;1.10;;;;;;;-148.88;38.74;74489.66;5036334;28;20108;-84
2022/09/03 09:20:55;;;;;;;3.72;1.10;;;;;;;-148.88;38.17;74475.44;5035433;28;20083;-83
2022/09/03 09:23:34;;;;;;;4.07;1.05;;;;;;;-148.88;38.35;74449.03;5035106;28;20036;-85
2022/09/03 09:26:05;;;;;;;3.13;1.00;;;;;;;-148.88;37.99;74418.56;5034988;28;20043;-84
2022/09/03 09:28:36;;;;;;;2.50;0.90;;;;;;;-148.88;37.66;74400.31;5035357;28;20025;-87
2022/09/03 09:31:06;;;;;;;4.00;1.10;;;;;;;-148.88;37.29;74388.13;5033829;28;20052;-85
2022/09/03 09:33:33;;;;;;;2.05;0.90;;;;;;;-148.88;37.35;74371.88;5033950;28;20036;-85
2022/09/03 09:36:02;;;;;;;2.10;1.08;;;;;;;-148.88;37.34;74335.31;5035022;28;20025;-84
2022/09/03 09:38:32;;;;;;;2.25;1.20;;;;;;;-148.88;36.41;74339.38;5035108;28;20037;-86
2022/09/03 09:41:08;;;;;;;2.85;0.80;;;;;;;-148.88;36.62;74339.38;5035490;28;20026;-84
2022/09/03 09:43:34;;;;;;;3.42;1.00;;;;;;;-148.88;36.88;74319.09;5034834;28;20083;-87
2022/09/03 09:46:10;;;;;;;1.50;0.75;;;;;;;-148.88;36.70;74306.91;5034634;28;20383;-85
2022/09/03 09:48:45;;;;;;;2.05;0.90;;;;;;;-148.88;36.38;74331.25;5032952;28;20479;-85
2022/09/03 09:51:21;;;;;;;4.13;1.10;;;;;;;-148.88;36.59;74343.44;5034721;28;20030;-86
2022/09/03 09:53:47;;;;;;;2.33;0.98;;;;;;;-148.88;36.31;74327.19;5034114;28;20021;-86
2022/09/03 09:56:24;;;;;;;3.40;1.08;;;;;;;-148.88;36.05;74282.53;5034764;28;20484;-87
2022/09/03 09:58:51;;;;;;;2.10;1.05;;;;;;;-148.88;35.88;74278.47;5033182;28;20053;-86
2022/09/03 10:01:24;;;;;;;2.35;0.85;;;;;;;-148.88;35.41;74266.28;5033185;28;20021;-84
2022/09/03 10:03:56;;;;;;;3.35;1.02;;;;;;;-148.88;35.71;74233.81;5034748;28;20025;-85
2022/09/03 10:09:28;;;;;;;4.50;1.05;;;;;;;-148.88;35.04;74207.41;5034601;28;20048;-85
2022/09/03 10:12:04;;;;;;;3.22;1.10;;;;;;;-148.88;35.25;74187.09;5033488;28;20022;-84
2022/09/03 10:14:36;;;;;;;3.75;1.00;;;;;;;-148.88;34.78;74164.78;5033714;28;20628;-85
2022/09/03 10:17:43;;;;;;;2.83;0.90;;;;;;;-148.88;34.50;74166.81;5034296;28;20033;-86
2022/09/03 10:20:32;;;;;;;2.95;1.00;;;;;;;-148.88;34.78;74136.34;5032513;28;20029;-86
2022/09/03 10:23:09;;;;;;;1.70;0.90;;;;;;;-148.88;33.96;74099.78;5033506;28;20367;-86
2022/09/03 10:25:56;;;;;;;2.50;1.23;;;;;;;-148.88;34.04;74071.38;5032920;28;20396;-85
2022/09/03 10:28:27;;;;;;;6.68;1.00;;;;;;;-148.88;33.35;74047.00;5032823;28;20395;-85
2022/09/03 10:31:19;;;;;;;2.25;1.00;;;;;;;-148.88;34.19;74044.97;5032526;28;20014;-85
2022/09/03 10:33:58;;;;;;;5.63;1.05;;;;;;;-148.88;33.61;74071.38;5034233;28;20037;-85
2022/09/03 10:36:30;;;;;;;4.28;1.00;;;;;;;-148.88;33.40;74091.69;5034865;28;20029;-86
2022/09/03 10:39:05;;;;;;;5.00;1.10;;;;;;;-148.88;33.93;74087.63;5034069;28;20493;-86
2022/09/03 10:41:54;;;;;;;3.40;1.00;;;;;;;-148.88;33.85;74087.63;5033995;28;20116;-87
2022/09/03 10:44:43;;;;;;;4.82;1.23;;;;;;;-148.88;33.72;74055.13;5033084;28;20128;-84
2022/09/03 10:47:56;;;;;;;2.80;1.13;;;;;;;-148.88;33.52;74073.41;5049393;28;20029;-86
2022/09/03 10:50:27;;;;;;;3.10;1.02;;;;;;;-148.88;34.24;74067.31;5033228;28;20034;-85
2022/09/03 10:53:30;;;;;;;2.22;1.00;;;;;;;-148.88;33.67;74026.72;5034777;28;20033;-85
2022/09/03 10:56:13;;;;;;;3.25;1.00;;;;;;;-148.88;33.07;74006.41;5034994;28;20025;-83
2022/09/03 10:58:51;;;;;;;3.75;1.13;;;;;;;-148.88;33.25;74008.44;5033779;28;20025;-85
2022/09/03 11:01:49;;;;;;;2.20;0.90;;;;;;;-148.88;32.98;73977.97;5034106;28;20033;-84
2022/09/03 11:04:32;;;;;;;3.15;0.90;;;;;;;-148.88;33.77;73937.38;5050328;28;20465;-84
2022/09/03 11:07:04;;;;;;;4.07;1.23;;;;;;;-148.88;32.45;73943.47;5034252;28;20034;-84
2022/09/03 11:09:36;;;;;;;2.70;0.98;;;;;;;-148.88;32.04;73941.44;5032639;28;20553;-84
2022/09/03 11:12:12;;;;;;;2.90;0.85;;;;;;;-148.88;32.63;73992.19;5034197;28;20108;-85
2022/09/03 11:14:43;;;;;;;2.70;1.10;;;;;;;-148.88;32.63;73982.03;5032546;28;20033;-85
2022/09/03 11:17:16;;;;;;;3.28;1.30;;;;;;;-148.88;32.82;73996.25;5033323;28;20025;-85
2022/09/03 11:23:39;;;;;;;2.88;1.20;;;;;;;-148.88;32.64;74014.53;5680315;22;20076;-86
2022/09/03 11:26:11;;;;;;;4.40;1.10;;;;;;;-148.88;33.15;73951.59;5032358;28;20040;-85
2022/09/03 11:28:50;;;;;;;9.13;1.60;;;;;;;-148.88;32.85;73896.75;5032807;28;20021;-86
2022/09/03 11:31:49;;;;;;;6.47;1.40;;;;;;;-148.88;32.16;73902.84;5033914;28;20156;-85
2022/09/03 11:34:26;;;;;;;11.32;1.40;;;;;;;-148.88;32.06;73882.56;5013278;28;20026;-85
2022/09/03 11:37:04;;;;;;;3.85;0.95;;;;;;;-148.88;32.11;73945.50;5013823;28;20025;-85
2022/09/03 11:39:38;;;;;;;2.78;1.00;;;;;;;-148.88;31.94;73880.53;5013129;28;20026;-85
2022/09/03 11:42:28;;;;;;;2.65;0.90;;;;;;;-148.88;31.58;73872.41;5012387;28;20061;-87
2022/09/03 11:44:59;;;;;;;3.35;0.90;;;;;;;-148.88;31.91;73872.41;5013319;28;20029;-87
2022/09/03 11:47:44;;;;;;;4.68;0.88;;;;;;;-148.88;31.97;73831.81;5012396;28;20044;-85